Time;durP1;ratioP1;P1;durP2;ratioP2;P2;SDS_P1;SDS_P2;PMS_P1;PMS_P2;Temp;Humidity;BMP_temperature;BMP_pressure;BME280_temperature;BME280_humidity;BME280_pressure;Samples;Min_cycle;Max_cycle;Signal;HPM_P1;HPM_P2
2023/07/22 00:00:15;;;;;;;12.80;5.97;;;;;;;26.19;44.92;94566.84;5164348;23;20020;-52
2023/07/22 00:02:17;;;;;;;15.05;6.13;;;;;;;26.22;45.02;94572.53;5163902;22;20044;-47
2023/07/22 00:04:18;;;;;;;14.27;5.85;;;;;;;26.10;45.10;94578.09;5163386;23;20042;-51
2023/07/22 00:06:20;;;;;;;17.05;6.88;;;;;;;25.83;45.52;94585.38;5163832;23;20028;-51
2023/07/22 00:08:23;;;;;;;16.80;6.38;;;;;;;25.73;46.30;94580.75;5161956;23;20051;-52
2023/07/22 00:10:24;;;;;;;9.18;5.40;;;;;;;25.62;46.30;94587.91;5162660;22;20027;-53
2023/07/22 00:12:26;;;;;;;15.07;5.85;;;;;;;25.72;46.46;94584.50;5164170;23;20089;-49
2023/07/22 00:14:27;;;;;;;16.58;7.10;;;;;;;25.68;46.44;94588.75;5163205;23;20024;-53
2023/07/22 00:16:29;;;;;;;11.35;5.72;;;;;;;25.65;46.80;94590.06;5162054;23;20063;-53
2023/07/22 00:18:32;;;;;;;10.68;5.85;;;;;;;25.58;47.13;94588.69;5163258;23;20466;-52
2023/07/22 00:20:33;;;;;;;12.02;5.78;;;;;;;25.46;47.47;94586.16;5163530;22;20106;-53
2023/07/22 00:22:35;;;;;;;13.98;6.40;;;;;;;25.51;47.38;94589.69;5163389;23;20070;-55
2023/07/22 00:24:37;;;;;;;13.23;6.45;;;;;;;25.58;47.53;94594.84;5162914;22;20066;-52
2023/07/22 00:26:39;;;;;;;17.25;6.15;;;;;;;25.66;47.51;94586.34;5164698;22;20441;-51
2023/07/22 00:28:41;;;;;;;15.20;6.25;;;;;;;25.75;47.43;94598.22;5163930;23;20685;-54
2023/07/22 00:30:43;;;;;;;10.95;6.28;;;;;;;25.77;46.99;94599.81;5164490;22;20043;-52
2023/07/22 00:32:44;;;;;;;17.95;6.15;;;;;;;25.72;47.30;94589.84;5163585;22;20023;-48
2023/07/22 00:34:46;;;;;;;15.68;5.78;;;;;;;25.71;47.28;94597.09;5163759;22;20024;-49
2023/07/22 00:36:48;;;;;;;13.40;6.03;;;;;;;25.71;47.74;94593.63;5163194;23;20063;-49
2023/07/22 00:38:49;;;;;;;11.52;5.70;;;;;;;25.75;47.39;94584.00;5162559;22;20027;-50
2023/07/22 00:40:51;;;;;;;13.45;6.03;;;;;;;25.84;47.54;94584.31;5163940;23;20024;-56
2023/07/22 00:42:53;;;;;;;10.50;6.18;;;;;;;25.91;47.05;94579.56;5162815;23;20028;-53
2023/07/22 00:44:54;;;;;;;12.60;6.60;;;;;;;25.93;47.19;94590.84;5163980;23;20563;-54
2023/07/22 00:46:58;;;;;;;10.80;5.57;;;;;;;25.96;47.08;94593.00;5163459;23;20031;-50
2023/07/22 00:48:59;;;;;;;9.77;5.43;;;;;;;25.98;46.67;94595.44;5163569;22;20478;-54
2023/07/22 00:51:01;;;;;;;9.73;5.28;;;;;;;25.89;47.22;94595.13;5162696;22;20054;-55
2023/07/22 00:53:03;;;;;;;11.80;6.30;;;;;;;25.78;47.49;94602.25;5162643;23;20099;-51
2023/07/22 00:55:06;;;;;;;11.25;6.05;;;;;;;25.70;47.72;94608.88;5162379;22;20084;-52
2023/07/22 00:57:09;;;;;;;20.07;6.67;;;;;;;25.71;47.51;94609.72;5164065;22;20024;-53
2023/07/22 00:59:10;;;;;;;12.02;6.07;;;;;;;25.74;47.47;94610.00;5163973;22;20293;-53
2023/07/22 01:01:12;;;;;;;14.45;6.70;;;;;;;25.75;47.67;94605.47;5163488;23;20107;-52
2023/07/22 01:03:14;;;;;;;13.95;6.30;;;;;;;25.77;47.37;94594.44;5163179;22;20035;-55
2023/07/22 01:05:16;;;;;;;11.95;5.97;;;;;;;25.81;47.41;94587.50;5162460;22;20024;-51
2023/07/22 01:07:18;;;;;;;16.95;6.22;;;;;;;25.82;47.64;94587.25;5163250;22;20055;-50
2023/07/22 01:09:20;;;;;;;14.35;5.85;;;;;;;25.87;47.43;94591.84;5162390;23;20028;-51
2023/07/22 01:11:21;;;;;;;14.32;6.18;;;;;;;25.90;47.21;94583.34;5163674;22;20074;-50
2023/07/22 01:13:23;;;;;;;13.30;6.25;;;;;;;25.89;46.98;94576.34;5161421;22;20020;-52
2023/07/22 01:15:25;;;;;;;12.88;5.90;;;;;;;25.88;47.17;94580.91;5163588;22;20044;-51
2023/07/22 01:17:27;;;;;;;11.93;6.30;;;;;;;25.81;47.61;94579.47;5163471;22;20027;-52
2023/07/22 01:19:31;;;;;;;13.32;6.05;;;;;;;25.74;47.70;94575.13;5163608;22;20035;-52
2023/07/22 01:21:33;;;;;;;14.38;6.10;;;;;;;25.68;47.54;94578.00;5162211;22;20134;-52
2023/07/22 01:23:36;;;;;;;14.48;6.32;;;;;;;25.62;47.56;94581.72;5159174;23;20119;-50
2023/07/22 01:25:37;;;;;;;14.37;6.53;;;;;;;25.58;47.75;94577.97;5164009;22;20435;-52
2023/07/22 01:27:39;;;;;;;11.43;6.15;;;;;;;25.55;47.90;94576.56;5163345;23;20237;-54
2023/07/22 01:29:41;;;;;;;18.02;7.15;;;;;;;25.52;47.83;94572.53;5163635;23;20634;-52
2023/07/22 01:31:46;;;;;;;10.82;6.22;;;;;;;25.55;47.73;94565.84;5163819;23;20098;-52
2023/07/22 01:33:48;;;;;;;13.60;6.72;;;;;;;25.57;47.71;94555.66;5163341;22;20027;-50
2023/07/22 01:35:50;;;;;;;14.50;6.85;;;;;;;25.60;47.99;94560.53;5162471;22;20123;-53
2023/07/22 01:37:51;;;;;;;12.13;6.60;;;;;;;25.60;47.91;94557.84;5161786;23;20443;-52
2023/07/22 01:39:56;;;;;;;12.35;6.25;;;;;;;25.56;47.95;94567.47;5162501;23;20032;-52
2023/07/22 01:41:58;;;;;;;14.25;6.55;;;;;;;25.32;48.52;94565.13;5163466;22;20021;-51
2023/07/22 01:44:00;;;;;;;10.88;6.13;;;;;;;25.21;48.91;94563.41;5163614;22;20139;-52
2023/07/22 01:46:01;;;;;;;12.07;6.63;;;;;;;25.10;49.19;94562.50;5163080;23;20106;-54
2023/07/22 01:48:04;;;;;;;15.38;7.30;;;;;;;25.17;48.87;94556.91;5163330;23;20024;-52
2023/07/22 01:50:06;;;;;;;16.95;9.55;;;;;;;25.26;49.23;94555.41;5163023;22;20328;-51
2023/07/22 01:52:08;;;;;;;12.00;7.55;;;;;;;25.32;49.38;94557.09;5161943;22;20078;-54
2023/07/22 01:54:10;;;;;;;16.60;6.80;;;;;;;25.39;49.10;94559.56;5161685;23;20030;-51
2023/07/22 01:56:13;;;;;;;12.35;6.47;;;;;;;25.36;49.23;94560.06;5162277;22;20031;-52
2023/07/22 01:58:14;;;;;;;12.25;6.20;;;;;;;25.38;48.94;94557.91;5163191;22;20082;-54
2023/07/22 02:00:16;;;;;;;16.42;7.07;;;;;;;25.41;48.75;94552.06;5163179;22;20020;-53
2023/07/22 02:02:20;;;;;;;12.52;6.95;;;;;;;25.38;48.96;94551.75;5162477;22;20423;-52
2023/07/22 02:04:22;;;;;;;11.73;6.80;;;;;;;25.29;49.30;94556.78;5162903;22;20039;-53
2023/07/22 02:06:24;;;;;;;15.93;6.30;;;;;;;25.25;49.49;94555.66;5162278;22;20605;-53
2023/07/22 02:08:26;;;;;;;12.02;6.45;;;;;;;25.24;49.67;94559.41;5160409;22;20027;-48
2023/07/22 02:10:28;;;;;;;15.32;6.10;;;;;;;25.26;49.55;94554.63;5163129;23;20827;-51
2023/07/22 02:12:30;;;;;;;12.73;6.32;;;;;;;25.27;49.63;94551.66;5163147;22;20379;-48
2023/07/22 02:14:31;;;;;;;15.63;6.70;;;;;;;25.25;49.72;94548.44;5161463;23;20055;-50
2023/07/22 02:16:37;;;;;;;12.60;5.97;;;;;;;25.23;49.60;94555.09;5161606;23;20024;-54
2023/07/22 02:18:39;;;;;;;11.05;6.47;;;;;;;25.20;49.75;94556.44;5162481;22;20280;-52
2023/07/22 02:20:42;;;;;;;12.65;5.90;;;;;;;25.22;49.94;94562.34;5160742;23;20032;-51
2023/07/22 02:22:44;;;;;;;12.18;5.75;;;;;;;25.20;49.97;94571.72;5162059;22;20074;-53
2023/07/22 02:24:46;;;;;;;15.70;6.40;;;;;;;25.15;50.23;94569.75;5161720;23;20020;-50
2023/07/22 02:26:47;;;;;;;14.43;6.70;;;;;;;25.14;50.28;94557.41;5163017;22;20508;-53
2023/07/22 02:28:49;;;;;;;9.32;5.53;;;;;;;25.09;50.38;94557.38;5163051;23;20024;-53
2023/07/22 02:30:52;;;;;;;12.20;6.28;;;;;;;25.07;50.62;94567.53;5162875;23;20030;-56
2023/07/22 02:32:54;;;;;;;14.85;7.75;;;;;;;24.94;50.93;94568.75;5163470;22;20081;-53
2023/07/22 02:34:55;;;;;;;16.52;7.10;;;;;;;24.82;51.16;94568.06;5164898;23;20467;-54
2023/07/22 02:36:57;;;;;;;12.15;6.22;;;;;;;24.78;51.12;94572.31;5164202;22;20020;-52
2023/07/22 02:38:58;;;;;;;18.88;7.20;;;;;;;24.67;51.60;94574.06;5163019;23;20459;-53
2023/07/22 02:41:06;;;;;;;16.42;6.80;;;;;;;24.59;51.83;94574.50;5165399;23;20028;-54
2023/07/22 02:43:08;;;;;;;14.13;6.57;;;;;;;24.57;51.76;94569.41;5164830;22;20020;-55
2023/07/22 02:45:10;;;;;;;15.15;6.57;;;;;;;24.37;52.21;94569.09;5164702;23;20455;-55
2023/07/22 02:47:12;;;;;;;11.68;6.28;;;;;;;24.29;52.65;94565.81;5163432;22;20055;-49
2023/07/22 02:49:13;;;;;;;15.70;6.40;;;;;;;24.38;52.29;94573.41;5164453;22;20105;-55
2023/07/22 02:51:15;;;;;;;12.82;6.47;;;;;;;24.48;51.99;94576.22;5163887;23;20020;-55
2023/07/22 02:53:16;;;;;;;13.75;6.45;;;;;;;24.53;51.85;94573.63;5163123;23;20070;-53
2023/07/22 02:55:19;;;;;;;15.27;6.88;;;;;;;24.55;51.48;94570.72;5163393;23;20070;-50
2023/07/22 02:57:20;;;;;;;15.27;6.30;;;;;;;24.60;51.57;94573.44;5164398;22;20034;-54
2023/07/22 02:59:22;;;;;;;12.63;6.47;;;;;;;24.53;51.89;94577.13;5164048;23;20032;-53
2023/07/22 03:01:24;;;;;;;11.45;5.90;;;;;;;24.48;51.87;94578.91;5164145;22;20028;-54
2023/07/22 03:03:26;;;;;;;14.70;6.20;;;;;;;24.48;51.81;94581.59;5163453;23;20024;-54
2023/07/22 03:05:29;;;;;;;12.65;6.53;;;;;;;24.40;52.08;94574.78;5164285;22;20059;-54
2023/07/22 03:07:30;;;;;;;8.77;6.20;;;;;;;24.29;52.49;94573.84;5164085;22;20553;-52
2023/07/22 03:09:32;;;;;;;12.88;6.55;;;;;;;24.29;52.67;94573.03;5163319;23;20055;-54
2023/07/22 03:11:34;;;;;;;14.55;6.53;;;;;;;24.29;52.61;94573.84;5164134;23;20525;-54
2023/07/22 03:13:36;;;;;;;13.60;6.30;;;;;;;24.28;52.56;94572.19;5163802;22;20090;-53
2023/07/22 03:15:38;;;;;;;13.57;6.53;;;;;;;24.33;52.54;94571.47;5163529;22;20054;-52
2023/07/22 03:17:43;;;;;;;14.73;6.22;;;;;;;24.40;52.46;94574.78;5163719;23;20038;-53
2023/07/22 03:19:45;;;;;;;12.35;6.65;;;;;;;24.41;52.54;94576.38;5162900;22;20100;-53
2023/07/22 03:21:50;;;;;;;15.20;6.72;;;;;;;24.43;52.44;94576.94;5163789;23;20101;-54
2023/07/22 03:23:52;;;;;;;15.70;6.82;;;;;;;24.42;52.49;94574.53;5163122;22;20044;-55
2023/07/22 03:25:54;;;;;;;11.32;6.38;;;;;;;24.37;52.61;94575.28;5164591;22;20485;-51
2023/07/22 03:27:56;;;;;;;10.77;6.35;;;;;;;24.41;52.49;94581.75;5164496;23;20127;-54
2023/07/22 03:29:57;;;;;;;13.20;6.45;;;;;;;24.41;52.45;94589.78;5164993;22;20431;-52
2023/07/22 03:31:59;;;;;;;13.18;6.15;;;;;;;24.47;52.18;94601.38;5164788;23;20024;-54
2023/07/22 03:34:01;;;;;;;14.05;6.53;;;;;;;24.52;52.34;94590.75;5163594;22;20195;-55
2023/07/22 03:36:03;;;;;;;16.23;6.30;;;;;;;24.42;52.55;94602.13;5163919;22;20032;-50
2023/07/22 03:38:05;;;;;;;14.15;6.97;;;;;;;24.37;52.69;94593.19;5163653;22;20633;-55
2023/07/22 03:40:20;;;;;;;15.65;6.43;;;;;;;24.37;52.51;94601.22;5163841;23;20020;-53
2023/07/22 03:42:22;;;;;;;12.73;7.03;;;;;;;24.16;53.42;94602.84;5164335;22;20028;-53
2023/07/22 03:44:24;;;;;;;13.07;6.90;;;;;;;24.04;53.75;94611.75;5164340;22;20403;-54
2023/07/22 03:46:26;;;;;;;11.68;6.93;;;;;;;24.04;53.63;94605.59;5163782;22;20023;-57
2023/07/22 03:48:28;;;;;;;13.90;7.05;;;;;;;24.14;53.82;94604.94;5163965;23;20318;-55
2023/07/22 03:50:29;;;;;;;14.07;6.20;;;;;;;24.25;53.11;94604.84;5163344;23;20067;-52
2023/07/22 03:52:31;;;;;;;14.93;6.30;;;;;;;24.32;53.00;94613.47;5163468;22;20046;-57
2023/07/22 03:54:33;;;;;;;11.30;6.05;;;;;;;24.29;52.87;94615.88;5163277;22;20339;-55
2023/07/22 03:56:37;;;;;;;16.00;6.30;;;;;;;24.29;52.80;94618.53;5162934;23;20026;-55
2023/07/22 03:58:38;;;;;;;12.50;6.72;;;;;;;24.31;53.13;94629.81;5164140;22;20027;-57
2023/07/22 04:00:40;;;;;;;12.85;6.72;;;;;;;24.33;52.87;94622.34;5163932;22;20615;-57
2023/07/22 04:02:42;;;;;;;11.82;7.25;;;;;;;24.39;52.79;94618.66;5163758;23;20470;-54
2023/07/22 04:04:44;;;;;;;19.80;7.43;;;;;;;24.38;52.84;94625.09;5163885;23;20042;-55
2023/07/22 04:06:45;;;;;;;18.92;7.88;;;;;;;24.25;53.07;94628.13;5162854;23;20115;-56
2023/07/22 04:08:47;;;;;;;19.15;7.28;;;;;;;24.21;53.53;94618.94;5162245;23;20020;-54
2023/07/22 04:10:53;;;;;;;15.55;7.18;;;;;;;24.18;53.42;94620.25;5164287;22;20024;-55
2023/07/22 04:12:54;;;;;;;10.82;6.82;;;;;;;24.19;53.26;94627.22;5164204;22;20051;-56
2023/07/22 04:14:56;;;;;;;10.75;6.05;;;;;;;24.02;53.48;94621.88;5162682;22;20161;-54
2023/07/22 04:16:58;;;;;;;12.73;6.40;;;;;;;23.99;53.73;94627.75;5163303;23;20020;-54
2023/07/22 04:19:00;;;;;;;15.07;6.93;;;;;;;24.07;53.84;94621.97;5163872;22;20036;-54
2023/07/22 04:21:01;;;;;;;10.55;6.78;;;;;;;24.04;53.78;94624.31;5164321;23;20253;-57
2023/07/22 04:23:03;;;;;;;11.98;6.28;;;;;;;24.17;53.66;94623.19;5163798;23;20462;-56
2023/07/22 04:25:05;;;;;;;15.35;6.55;;;;;;;24.21;53.49;94621.63;5163952;23;20111;-54
2023/07/22 04:27:07;;;;;;;15.90;6.97;;;;;;;24.29;53.28;94618.53;5164197;22;20055;-56
2023/07/22 04:29:11;;;;;;;13.00;6.95;;;;;;;24.36;53.36;94629.06;5163897;22;20093;-57
2023/07/22 04:31:12;;;;;;;;;;;;;;;24.42;53.55;94630.75;5164972;22;20024;-54
2023/07/22 04:33:14;;;;;;;13.07;6.60;;;;;;;24.32;53.69;94648.28;5163838;23;20411;-54
2023/07/22 04:35:19;;;;;;;16.45;6.50;;;;;;;24.26;53.89;94643.09;5163699;22;20070;-57
2023/07/22 04:37:21;;;;;;;18.23;6.35;;;;;;;24.39;53.80;94640.06;5162452;22;20026;-55
2023/07/22 04:39:23;;;;;;;13.15;6.78;;;;;;;24.54;53.51;94639.50;5162654;23;20481;-52
2023/07/22 04:41:25;;;;;;;18.83;6.70;;;;;;;24.72;53.04;94641.09;5163833;22;20071;-55
2023/07/22 04:43:26;;;;;;;15.70;6.15;;;;;;;24.89;52.74;94635.69;5163358;22;20028;-53
2023/07/22 04:45:28;;;;;;;15.77;7.20;;;;;;;25.01;52.21;94646.25;5162875;23;20463;-55
2023/07/22 04:47:30;;;;;;;16.48;6.18;;;;;;;24.98;52.41;94646.75;5164115;22;20341;-53
2023/07/22 04:49:31;;;;;;;13.40;6.20;;;;;;;24.97;52.19;94640.56;5163921;22;20054;-55
2023/07/22 04:51:33;;;;;;;12.43;6.65;;;;;;;25.04;52.31;94646.56;5163120;23;20028;-56
2023/07/22 04:53:35;;;;;;;11.65;6.75;;;;;;;25.09;52.10;94653.84;5162365;23;20032;-56
2023/07/22 04:55:37;;;;;;;23.23;7.53;;;;;;;25.04;52.21;94643.09;5163960;23;20020;-53
2023/07/22 04:57:43;;;;;;;19.10;6.90;;;;;;;25.12;52.06;94642.63;5164543;22;20570;-57
2023/07/22 04:59:45;;;;;;;11.63;6.85;;;;;;;25.27;52.07;94642.81;5163832;22;20094;-58
2023/07/22 05:01:47;;;;;;;13.43;6.68;;;;;;;25.40;51.60;94638.13;5164366;22;20024;-54
2023/07/22 05:03:49;;;;;;;14.82;7.18;;;;;;;25.50;51.42;94648.94;5163369;22;20107;-55
2023/07/22 05:05:51;;;;;;;12.73;6.85;;;;;;;25.52;51.07;94653.00;5163866;23;20027;-56
2023/07/22 05:07:52;;;;;;;15.90;6.20;;;;;;;25.30;51.65;94658.41;5163443;22;20047;-54
2023/07/22 05:09:54;;;;;;;17.98;7.20;;;;;;;25.12;52.20;94664.91;5162764;22;20079;-55
2023/07/22 05:11:56;;;;;;;17.33;7.20;;;;;;;25.06;52.90;94662.38;5164377;23;20394;-54
2023/07/22 05:13:57;;;;;;;14.80;7.40;;;;;;;25.00;52.81;94664.22;5164374;23;20024;-56
2023/07/22 05:15:59;;;;;;;14.27;7.25;;;;;;;24.81;53.24;94655.66;5164018;23;20027;-56
2023/07/22 05:18:01;;;;;;;15.20;7.88;;;;;;;24.65;53.89;94667.22;5163235;23;20653;-57
2023/07/22 05:20:06;;;;;;;19.20;7.53;;;;;;;24.60;54.02;94659.16;5163665;22;20411;-54
2023/07/22 05:22:07;;;;;;;21.77;8.55;;;;;;;24.66;53.93;94663.50;5163176;22;20020;-53
2023/07/22 05:24:09;;;;;;;17.63;7.47;;;;;;;24.71;54.03;94658.22;5162474;23;20400;-55
2023/07/22 05:26:11;;;;;;;15.95;8.18;;;;;;;24.79;53.87;94662.34;5163979;23;20572;-54
2023/07/22 05:28:12;;;;;;;15.60;7.60;;;;;;;24.82;53.93;94659.16;5162787;23;20024;-55
2023/07/22 05:30:14;;;;;;;18.33;7.55;;;;;;;24.90;53.89;94661.41;5164337;23;20023;-55
2023/07/22 05:32:35;;;;;;;20.05;8.70;;;;;;;24.93;53.71;94669.75;5164520;23;20423;-53
2023/07/22 05:34:37;;;;;;;11.75;7.38;;;;;;;25.00;53.77;94658.03;5164030;22;20081;-57
2023/07/22 05:36:39;;;;;;;21.00;8.48;;;;;;;25.07;53.83;94664.00;5163365;23;20020;-56
2023/07/22 05:38:41;;;;;;;15.73;7.80;;;;;;;25.08;53.90;94670.97;5161264;22;20429;-52
2023/07/22 05:40:43;;;;;;;16.60;7.88;;;;;;;25.16;53.46;94673.22;5164398;23;20027;-55
2023/07/22 05:42:44;;;;;;;18.90;7.47;;;;;;;24.89;54.32;94670.50;5164416;22;20074;-52
2023/07/22 05:44:48;;;;;;;17.52;7.50;;;;;;;24.88;54.46;94676.91;5164441;23;20099;-56
2023/07/22 05:46:49;;;;;;;17.90;7.82;;;;;;;25.04;54.05;94672.56;5164362;22;20023;-58
2023/07/22 05:48:51;;;;;;;11.60;7.57;;;;;;;25.13;54.04;94671.88;5164107;23;20567;-52
2023/07/22 05:50:53;;;;;;;18.77;7.32;;;;;;;25.13;54.08;94673.75;5163981;23;20031;-56
2023/07/22 05:52:55;;;;;;;18.70;7.72;;;;;;;25.19;54.04;94662.03;5164130;23;20087;-55
2023/07/22 05:54:57;;;;;;;13.38;7.43;;;;;;;25.41;53.34;94664.69;5161908;23;20020;-55
2023/07/22 05:56:59;;;;;;;12.50;7.53;;;;;;;25.68;53.23;94661.19;5164117;23;20051;-58
2023/07/22 05:59:01;;;;;;;15.98;8.60;;;;;;;25.88;52.69;94657.88;5163983;23;20024;-55
2023/07/22 06:01:03;;;;;;;13.07;8.30;;;;;;;25.99;52.12;94661.50;5163498;23;20448;-56
2023/07/22 06:03:05;;;;;;;20.17;8.27;;;;;;;25.98;52.18;94666.03;5164052;23;20024;-52
2023/07/22 06:05:07;;;;;;;15.65;7.45;;;;;;;26.05;52.05;94674.69;5164829;22;20016;-53
2023/07/22 06:07:08;;;;;;;16.92;8.20;;;;;;;26.24;51.73;94677.78;5163640;22;20139;-51
2023/07/22 06:09:10;;;;;;;15.95;7.45;;;;;;;26.30;51.01;94687.47;5164358;22;20024;-56
2023/07/22 06:11:12;;;;;;;17.60;7.97;;;;;;;26.45;50.65;94689.47;5165639;22;20021;-51
2023/07/22 06:13:14;;;;;;;13.40;7.82;;;;;;;26.62;50.21;94699.28;5165487;23;20020;-55
2023/07/22 06:15:15;;;;;;;17.40;8.35;;;;;;;26.55;50.64;94700.28;5165597;23;20020;-53
2023/07/22 06:17:18;;;;;;;18.50;8.50;;;;;;;26.18;51.63;94699.47;5165761;22;20024;-56
2023/07/22 06:19:20;;;;;;;14.80;8.73;;;;;;;26.08;51.52;94702.91;5165184;22;20030;-56
2023/07/22 06:21:21;;;;;;;18.98;8.50;;;;;;;25.95;52.09;94707.63;5165450;23;20024;-56
2023/07/22 06:23:23;;;;;;;19.15;8.48;;;;;;;26.03;52.28;94698.31;5163669;23;20028;-56
2023/07/22 06:25:25;;;;;;;23.00;9.10;;;;;;;26.19;52.01;94696.53;5165306;22;20024;-54
2023/07/22 06:27:26;;;;;;;17.65;9.43;;;;;;;26.27;51.89;94712.19;5165157;23;20020;-52
2023/07/22 06:29:28;;;;;;;19.60;9.35;;;;;;;26.46;51.53;94701.84;5164642;22;20034;-52
2023/07/22 06:31:30;;;;;;;17.02;8.98;;;;;;;26.65;51.05;94704.13;5165803;23;20062;-55
2023/07/22 06:33:32;;;;;;;17.95;9.05;;;;;;;26.79;50.84;94699.91;5164524;22;20046;-54
2023/07/22 06:35:34;;;;;;;15.15;9.18;;;;;;;26.86;51.14;94713.13;5163737;23;20127;-55
2023/07/22 06:37:35;;;;;;;16.45;8.65;;;;;;;26.97;50.73;94712.09;5164347;23;20405;-56
2023/07/22 06:39:37;;;;;;;18.05;9.38;;;;;;;26.83;50.93;94719.81;5164320;23;20047;-57
2023/07/22 06:41:39;;;;;;;18.60;9.25;;;;;;;26.84;50.77;94716.06;5164793;23;20042;-56
2023/07/22 06:43:40;;;;;;;20.27;9.60;;;;;;;27.01;50.49;94717.78;5165298;23;20020;-58
2023/07/22 06:45:42;;;;;;;11.15;8.20;;;;;;;26.98;50.41;94712.94;5165297;22;20099;-54
2023/07/22 06:47:44;;;;;;;16.70;8.55;;;;;;;26.95;50.52;94717.75;5164623;22;20250;-54
2023/07/22 06:49:46;;;;;;;15.05;8.60;;;;;;;27.01;50.77;94717.78;5164659;23;20016;-58
2023/07/22 06:51:48;;;;;;;20.75;8.98;;;;;;;27.00;50.41;94711.59;5162464;23;20359;-50
2023/07/22 06:53:49;;;;;;;11.95;8.68;;;;;;;26.91;50.54;94708.59;5163711;23;20399;-54
2023/07/22 06:55:52;;;;;;;13.48;8.68;;;;;;;27.05;50.89;94708.91;5165624;22;20020;-56
2023/07/22 06:57:56;;;;;;;12.98;8.50;;;;;;;27.22;50.06;94703.38;5164457;22;20030;-59
2023/07/22 06:59:58;;;;;;;15.70;8.32;;;;;;;27.30;49.91;94700.19;5162806;23;20028;-54
2023/07/22 07:02:00;;;;;;;13.55;7.82;;;;;;;27.48;49.77;94700.75;5164309;22;20102;-56
2023/07/22 07:04:02;;;;;;;19.60;8.32;;;;;;;27.33;49.82;94699.63;5164278;22;20056;-60
2023/07/22 07:06:03;;;;;;;16.35;8.63;;;;;;;27.40;49.80;94703.97;5164662;23;20115;-53
2023/07/22 07:08:05;;;;;;;10.80;7.82;;;;;;;27.48;50.14;94698.06;5163773;23;20103;-52
2023/07/22 07:10:07;;;;;;;15.75;8.80;;;;;;;27.47;49.31;94697.28;5164397;22;20056;-53
2023/07/22 07:12:09;;;;;;;14.32;9.18;;;;;;;27.40;49.61;94696.69;5164303;22;20475;-56
2023/07/22 07:14:11;;;;;;;17.73;8.57;;;;;;;27.57;48.88;94699.97;5164269;22;20140;-57
2023/07/22 07:16:27;;;;;;;14.55;7.60;;;;;;;27.68;48.82;94703.50;5164247;22;20127;-57
2023/07/22 07:18:30;;;;;;;12.57;8.80;;;;;;;27.78;48.69;94695.44;5163818;22;20346;-54
2023/07/22 07:20:31;;;;;;;15.23;8.18;;;;;;;27.77;48.47;94695.72;5163653;23;20135;-56
2023/07/22 07:22:33;;;;;;;14.55;8.23;;;;;;;27.74;48.43;94702.44;5163960;22;20506;-56
2023/07/22 07:24:35;;;;;;;11.23;8.13;;;;;;;27.82;48.07;94700.31;5163597;23;20075;-53
2023/07/22 07:26:36;;;;;;;19.77;9.57;;;;;;;27.84;48.07;94695.47;5165198;22;20051;-55
2023/07/22 07:28:39;;;;;;;16.92;9.40;;;;;;;27.90;48.24;94686.31;5164901;23;20028;-54
2023/07/22 07:30:40;;;;;;;15.43;9.27;;;;;;;28.12;47.72;94683.41;5161366;23;20260;-54
2023/07/22 07:32:42;;;;;;;15.82;9.38;;;;;;;28.28;48.08;94684.19;5162544;22;20447;-57
2023/07/22 07:34:44;;;;;;;17.08;8.70;;;;;;;28.22;48.54;94690.66;5163141;23;20024;-53
2023/07/22 07:36:45;;;;;;;12.57;8.77;;;;;;;28.30;47.99;94684.72;5162608;23;20016;-56
2023/07/22 07:38:47;;;;;;;15.20;8.80;;;;;;;28.42;47.96;94682.56;5161907;23;20023;-55
2023/07/22 07:41:18;;;;;;;17.95;9.82;;;;;;;28.64;47.02;94676.09;5163478;23;20127;-55
2023/07/22 07:43:20;;;;;;;18.58;9.02;;;;;;;28.75;46.83;94677.66;5137436;22;20467;-55
2023/07/22 07:45:22;;;;;;;19.90;8.15;;;;;;;28.84;46.58;94676.03;5162951;22;20024;-55
2023/07/22 07:47:23;;;;;;;19.42;8.88;;;;;;;28.92;47.09;94680.06;5164544;23;20055;-61
2023/07/22 07:49:25;;;;;;;14.60;9.23;;;;;;;29.01;46.06;94681.09;5164403;22;20023;-52
2023/07/22 07:51:29;;;;;;;13.73;8.38;;;;;;;29.06;45.86;94674.88;5163600;23;20613;-55
2023/07/22 07:53:30;;;;;;;19.10;9.23;;;;;;;29.06;46.04;94672.16;5162700;22;20024;-54
2023/07/22 07:55:32;;;;;;;16.25;8.43;;;;;;;29.10;46.54;94665.16;5164590;23;20020;-56
2023/07/22 07:57:34;;;;;;;22.02;8.95;;;;;;;29.17;46.21;94660.31;5164572;23;20081;-52
2023/07/22 07:59:36;;;;;;;14.10;9.27;;;;;;;29.18;46.77;94672.69;5163505;23;20020;-57
2023/07/22 08:01:41;;;;;;;14.07;8.60;;;;;;;29.20;46.84;94670.53;5164212;23;20031;-56
2023/07/22 08:03:44;;;;;;;15.13;9.02;;;;;;;29.28;46.39;94667.25;5161692;22;20390;-54
2023/07/22 08:05:46;;;;;;;18.97;8.87;;;;;;;29.31;46.19;94665.88;5162841;22;20493;-55
2023/07/22 08:07:48;;;;;;;17.40;8.85;;;;;;;29.34;45.80;94676.94;5160524;23;20093;-53
2023/07/22 08:09:50;;;;;;;18.65;8.57;;;;;;;29.39;46.11;94668.81;5163097;22;20055;-52
2023/07/22 08:11:51;;;;;;;13.85;9.02;;;;;;;29.47;45.89;94672.84;5163188;23;20020;-53
2023/07/22 08:13:53;;;;;;;16.00;8.57;;;;;;;29.58;45.37;94666.28;5162176;23;20032;-54
2023/07/22 08:15:55;;;;;;;10.73;8.32;;;;;;;29.59;45.70;94670.59;5162101;23;20026;-55
2023/07/22 08:17:56;;;;;;;16.95;9.00;;;;;;;29.74;45.61;94671.59;5163287;22;20020;-55
2023/07/22 21:50:49;;;;;;;21.27;6.85;;;;;;;27.87;51.42;94589.97;4852867;22;20402;-49
2023/07/22 21:52:51;;;;;;;20.23;7.05;;;;;;;27.86;51.01;94596.44;5186967;22;20154;-56
2023/07/22 21:54:52;;;;;;;19.58;5.85;;;;;;;27.84;51.47;94602.06;5214703;22;20024;-54
2023/07/22 21:56:55;;;;;;;16.38;5.90;;;;;;;27.84;50.98;94601.25;5214850;22;20020;-56
2023/07/22 21:58:56;;;;;;;19.95;5.65;;;;;;;27.82;50.98;94595.31;5214177;22;20025;-54
2023/07/22 22:00:58;;;;;;;13.02;5.65;;;;;;;27.79;51.25;94599.34;5215214;22;20361;-58
2023/07/22 22:03:00;;;;;;;13.73;5.50;;;;;;;27.78;51.16;94582.38;5214704;22;20025;-53
2023/07/22 22:05:02;;;;;;;13.55;5.78;;;;;;;27.78;51.39;94587.78;5214666;22;20033;-54
2023/07/22 22:07:04;;;;;;;15.73;5.40;;;;;;;27.78;51.31;94593.16;5214330;22;20021;-50
2023/07/22 22:09:08;;;;;;;17.48;6.05;;;;;;;27.77;50.97;94599.63;5214814;22;20081;-55
2023/07/22 22:11:09;;;;;;;17.80;5.60;;;;;;;27.68;51.24;94603.91;5214401;22;20031;-51
2023/07/22 22:13:11;;;;;;;15.40;5.70;;;;;;;27.62;51.82;94618.47;5214349;22;20424;-51
2023/07/22 22:15:14;;;;;;;18.02;5.45;;;;;;;27.55;51.69;94607.97;5215060;22;20402;-55
2023/07/22 22:17:15;;;;;;;14.88;5.65;;;;;;;27.52;51.79;94605.00;5213782;22;20023;-53
2023/07/22 22:19:17;;;;;;;15.57;5.68;;;;;;;27.54;52.05;94600.16;5214681;22;20084;-48
2023/07/22 22:21:19;;;;;;;16.10;6.15;;;;;;;27.49;51.72;94592.91;5214407;22;20042;-53
2023/07/22 22:23:21;;;;;;;18.92;5.45;;;;;;;27.41;52.05;94604.19;5214296;22;20024;-54
2023/07/22 22:25:22;;;;;;;16.98;5.63;;;;;;;27.35;52.12;94597.16;5187053;22;20196;-55
2023/07/22 22:27:24;;;;;;;16.40;6.05;;;;;;;27.24;52.83;94601.72;5214963;22;20465;-52
2023/07/22 22:29:26;;;;;;;17.83;6.72;;;;;;;27.10;52.86;94609.47;5214497;22;20097;-54
2023/07/22 22:31:28;;;;;;;17.23;5.80;;;;;;;27.06;52.79;94600.31;5214496;22;20038;-52
2023/07/22 22:33:30;;;;;;;21.38;5.53;;;;;;;27.04;53.08;94604.31;5186148;22;20027;-53
2023/07/22 22:35:32;;;;;;;14.15;5.45;;;;;;;27.07;52.82;94612.66;5215051;22;20019;-54
2023/07/22 22:37:33;;;;;;;19.75;6.00;;;;;;;27.02;52.85;94609.16;5214467;22;20137;-55
2023/07/22 22:39:35;;;;;;;15.48;5.40;;;;;;;27.06;52.75;94607.56;5214543;22;20452;-51
2023/07/22 22:41:37;;;;;;;16.80;6.20;;;;;;;27.05;52.87;94612.13;5214474;22;20020;-54
2023/07/22 22:43:39;;;;;;;15.38;5.07;;;;;;;27.08;52.87;94621.53;5214359;22;20019;-50
2023/07/22 22:45:41;;;;;;;15.10;4.95;;;;;;;27.11;52.90;94624.50;5213930;22;20568;-53
2023/07/22 22:47:42;;;;;;;17.45;5.47;;;;;;;27.11;52.89;94631.78;5215220;22;20085;-57
2023/07/22 22:49:46;;;;;;;16.15;5.93;;;;;;;27.06;53.10;94629.88;5214534;22;20019;-55
2023/07/22 22:51:48;;;;;;;20.88;5.78;;;;;;;27.02;52.96;94619.91;5216759;22;20019;-54
2023/07/22 22:53:50;;;;;;;14.98;6.32;;;;;;;26.99;53.18;94626.63;5216522;22;20038;-54
2023/07/22 22:55:52;;;;;;;17.60;5.28;;;;;;;26.99;53.15;94637.38;5216320;22;20019;-53
2023/07/22 22:57:53;;;;;;;13.35;5.68;;;;;;;26.95;53.59;94634.41;5214969;22;20376;-59
2023/07/22 22:59:55;;;;;;;19.17;6.32;;;;;;;26.98;53.18;94651.09;5217214;22;20031;-54